createdAt,value
2018-09-21T07:46:28.147Z,24.20
2018-09-21T07:50:31.525Z,24.00
2018-09-21T07:54:34.903Z,24.00
2018-09-21T07:58:38.238Z,24.20
2018-09-21T08:02:41.580Z,24.30
2018-09-21T08:06:44.921Z,24.40
2018-09-21T08:10:48.343Z,24.50
2018-09-21T08:14:51.708Z,24.50
2018-09-21T08:18:55.040Z,24.60
2018-09-21T08:22:58.401Z,24.60
2018-09-21T08:27:01.769Z,24.50
2018-09-21T08:31:05.079Z,24.50
2018-09-21T08:35:08.411Z,24.60
2018-09-21T08:39:12.259Z,24.50
2018-09-21T08:43:15.587Z,24.60
2018-09-21T08:47:18.924Z,24.60
2018-09-21T08:51:22.279Z,24.50
2018-09-21T08:55:25.671Z,24.50
2018-09-21T08:59:29.022Z,24.40
2018-09-21T09:03:32.434Z,24.40
2018-09-21T09:07:35.744Z,24.40
2018-09-21T09:11:39.455Z,24.40
2018-09-21T09:15:42.850Z,24.40
2018-09-21T09:19:46.175Z,24.40
2018-09-21T09:23:49.524Z,24.40
2018-09-21T09:27:52.863Z,24.40
2018-09-21T09:31:56.199Z,24.40
2018-09-21T09:35:59.536Z,24.40
2018-09-21T09:40:02.878Z,24.30
2018-09-21T09:44:06.219Z,24.30
2018-09-21T09:48:09.581Z,24.30
2018-09-21T09:52:12.991Z,24.30
2018-09-21T09:56:16.299Z,24.30
2018-09-21T10:00:25.144Z,24.30
2018-09-21T10:04:28.470Z,24.20
2018-09-21T10:08:31.795Z,24.10
2018-09-21T10:12:35.139Z,23.80
2018-09-21T10:16:38.448Z,23.70
2018-09-21T10:20:41.848Z,23.40
2018-09-21T10:24:45.169Z,23.30
2018-09-21T10:28:48.690Z,23.00
2018-09-21T10:32:51.857Z,22.60
2018-09-21T10:36:55.199Z,22.20
2018-09-21T10:40:58.538Z,21.40
2018-09-21T10:45:01.856Z,20.70
2018-09-21T10:49:05.255Z,20.00
2018-09-21T10:53:08.580Z,19.50
2018-09-21T10:57:11.896Z,19.00
2018-09-21T11:01:15.215Z,18.60
2018-09-21T11:05:18.547Z,18.40
2018-09-21T11:09:21.917Z,18.20
2018-09-21T11:13:25.229Z,17.90
2018-09-21T11:17:28.542Z,17.70
2018-09-21T11:21:32.179Z,17.60
2018-09-21T11:25:35.500Z,17.60
2018-09-21T11:29:38.832Z,17.40
2018-09-21T11:33:42.158Z,17.40
2018-09-21T11:37:45.480Z,17.30
2018-09-21T11:41:48.811Z,17.30
2018-09-21T11:45:52.147Z,17.30
2018-09-21T11:49:55.504Z,17.20
2018-09-21T11:53:58.831Z,17.20
2018-09-21T11:58:02.137Z,17.20
2018-09-21T12:02:05.884Z,17.20
2018-09-21T12:06:09.203Z,17.20
2018-09-21T12:10:12.546Z,17.20
2018-09-21T12:14:15.890Z,17.10
2018-09-21T12:18:19.224Z,17.10
2018-09-21T12:22:22.576Z,17.10
2018-09-21T12:26:25.903Z,17.00
2018-09-21T12:30:29.360Z,17.10
2018-09-21T12:34:32.577Z,17.20
2018-09-21T12:38:35.959Z,17.30
2018-09-21T12:42:39.329Z,17.30
2018-09-21T12:46:42.637Z,17.40
2018-09-21T12:50:46.633Z,17.40
2018-09-21T12:54:49.964Z,17.50
2018-09-21T12:58:53.456Z,17.50
2018-09-21T13:02:56.704Z,17.50
2018-09-21T13:07:00.043Z,17.40
2018-09-21T13:11:03.513Z,17.40
2018-09-21T13:15:06.934Z,17.50
2018-09-21T13:19:10.263Z,17.50
2018-09-21T13:23:13.673Z,17.50
2018-09-21T13:27:17.024Z,17.50
2018-09-21T13:31:20.896Z,17.60
2018-09-21T13:35:24.276Z,17.60
2018-09-21T13:39:27.628Z,17.50
2018-09-21T13:43:31.008Z,17.50
2018-09-21T13:47:34.354Z,17.50
2018-09-21T13:51:37.678Z,17.50
2018-09-21T13:55:41.063Z,17.50
2018-09-21T13:59:44.403Z,17.40
2018-09-21T14:03:47.729Z,17.40
2018-09-21T14:07:51.060Z,17.40
2018-09-21T14:11:54.469Z,17.40
2018-09-21T14:15:57.814Z,17.30
2018-09-21T14:20:01.167Z,17.30
2018-09-21T14:24:04.979Z,17.40
2018-09-21T14:28:08.303Z,17.30
2018-09-21T14:32:11.715Z,17.30
2018-09-21T14:36:15.035Z,17.30
2018-09-21T14:40:18.378Z,17.20
2018-09-21T14:44:21.696Z,17.10
2018-09-21T14:48:25.024Z,17.10
2018-09-21T14:52:28.409Z,17.10
2018-09-21T14:56:32.887Z,17.10
2018-09-21T15:00:36.459Z,17.10
2018-09-21T15:04:40.926Z,17.20
2018-09-21T15:08:44.528Z,17.30
2018-09-21T15:12:47.885Z,17.50
2018-09-21T15:16:51.234Z,17.70
2018-09-21T15:20:54.586Z,17.90
2018-09-21T15:24:57.915Z,18.20
2018-09-21T15:29:01.283Z,18.20
2018-09-21T15:33:04.632Z,18.40
2018-09-21T15:37:07.959Z,18.50
2018-09-21T15:41:11.322Z,18.70
2018-09-21T15:45:14.663Z,18.90
2018-09-21T15:49:18.003Z,19.00
2018-09-21T15:53:21.334Z,19.10
2018-09-21T15:57:24.684Z,19.20
2018-09-21T16:01:28.168Z,19.20
2018-09-21T16:05:31.496Z,19.20
2018-09-21T16:09:34.812Z,19.20
2018-09-21T16:13:38.148Z,19.30
2018-09-21T16:17:41.500Z,19.30
2018-09-21T16:21:44.820Z,19.20
2018-09-21T16:25:48.119Z,19.10
2018-09-21T16:29:51.475Z,18.90
2018-09-21T16:33:54.799Z,18.70
2018-09-21T16:37:58.144Z,18.50
2018-09-21T16:42:01.488Z,18.30
2018-09-21T16:46:04.803Z,18.10
2018-09-21T16:50:08.174Z,17.90
2018-09-21T16:58:14.559Z,17.60
2018-09-21T17:02:17.894Z,17.40
2018-09-21T17:06:21.208Z,17.20
2018-09-21T17:10:24.571Z,17.10
2018-09-21T17:14:27.891Z,16.90
2018-09-21T17:18:31.250Z,16.80
2018-09-21T17:22:34.564Z,16.60
2018-09-21T17:26:37.940Z,16.50
2018-09-21T17:30:41.324Z,16.40
2018-09-21T17:34:44.644Z,16.20
2018-09-21T17:38:47.977Z,16.10
2018-09-21T17:42:51.304Z,16.00
2018-09-21T17:46:54.668Z,15.80
2018-09-21T17:50:58.031Z,15.80
2018-09-21T17:55:01.352Z,15.70
2018-09-21T17:59:04.685Z,15.60
2018-09-21T18:03:08.027Z,15.50
2018-09-21T18:07:15.635Z,15.40
2018-09-21T18:11:19.097Z,15.40
2018-09-21T18:15:22.415Z,15.30
2018-09-21T18:19:25.804Z,15.20
2018-09-21T18:23:29.155Z,15.10
2018-09-21T18:27:32.471Z,15.00
2018-09-21T18:31:35.897Z,15.00
2018-09-21T18:35:39.182Z,14.90
2018-09-21T18:39:42.527Z,14.80
2018-09-21T18:43:45.876Z,14.80
2018-09-21T18:47:49.227Z,14.70
2018-09-21T18:51:52.599Z,14.70
2018-09-21T18:55:55.907Z,14.70
2018-09-21T18:59:59.226Z,14.60
2018-09-21T19:04:02.617Z,14.60
2018-09-21T19:08:06.031Z,14.60
2018-09-21T19:12:09.384Z,14.60
2018-09-21T19:16:12.724Z,14.60
2018-09-21T19:20:22.660Z,14.60
2018-09-21T19:24:25.979Z,14.60
2018-09-21T19:28:29.319Z,14.50
2018-09-21T19:32:32.653Z,14.40
2018-09-21T19:36:36.024Z,14.20
2018-09-21T19:40:39.396Z,14.00
2018-09-21T19:44:42.715Z,13.80
2018-09-21T19:48:46.069Z,13.50
2018-09-21T19:52:49.395Z,13.40
2018-09-21T19:56:52.731Z,13.30
2018-09-21T20:00:56.132Z,13.10
2018-09-21T20:04:59.512Z,13.10
2018-09-21T20:09:02.938Z,13.00
2018-09-21T20:13:06.320Z,12.90
2018-09-21T20:17:09.675Z,12.80
2018-09-21T20:21:13.078Z,12.70
2018-09-21T20:25:16.496Z,12.60
2018-09-21T20:29:19.786Z,12.50
2018-09-21T20:33:27.445Z,12.40
2018-09-21T20:37:30.875Z,12.30
2018-09-21T20:41:34.251Z,12.30
2018-09-21T20:45:37.631Z,12.30
2018-09-21T20:49:41.036Z,12.20
2018-09-21T20:53:44.354Z,12.10
2018-09-21T20:57:47.714Z,12.10
2018-09-21T21:01:51.061Z,12.00
2018-09-21T21:05:54.455Z,12.00
2018-09-21T21:09:58.393Z,12.00
2018-09-21T21:14:01.751Z,12.00
2018-09-21T21:18:05.567Z,11.90
2018-09-21T21:22:08.946Z,11.90
2018-09-21T21:26:12.302Z,11.90
2018-09-21T21:30:15.863Z,11.90
2018-09-21T21:34:19.239Z,12.00
2018-09-21T21:38:22.672Z,12.00
2018-09-21T21:42:26.791Z,12.00
2018-09-21T21:46:30.184Z,12.00
2018-09-21T21:50:33.510Z,11.90
2018-09-21T21:54:36.823Z,11.90
2018-09-21T21:58:40.185Z,11.90
2018-09-21T22:02:43.540Z,11.90
2018-09-21T22:06:47.140Z,11.80
2018-09-21T22:10:50.498Z,11.80
2018-09-21T22:14:53.823Z,11.80
2018-09-21T22:18:57.170Z,11.80
2018-09-21T22:23:00.532Z,11.80
2018-09-21T22:27:03.888Z,11.80
2018-09-21T22:31:07.204Z,11.80
2018-09-21T22:35:10.519Z,11.80
2018-09-21T22:39:13.850Z,11.90
2018-09-21T22:43:17.186Z,11.90
2018-09-21T22:47:20.523Z,11.90
2018-09-21T22:51:23.887Z,11.90
2018-09-21T22:55:27.212Z,11.90
2018-09-21T22:59:30.567Z,11.90
2018-09-21T23:03:33.882Z,11.90
2018-09-21T23:07:37.244Z,12.00
2018-09-21T23:11:41.405Z,12.00
2018-09-21T23:15:44.787Z,12.00
2018-09-21T23:19:48.140Z,12.00
2018-09-21T23:23:51.483Z,12.00
2018-09-21T23:27:54.824Z,12.00
2018-09-21T23:31:58.205Z,11.90
2018-09-21T23:36:01.643Z,11.90
2018-09-21T23:40:05.121Z,12.00
2018-09-21T23:44:09.067Z,12.00
2018-09-21T23:48:12.424Z,12.00
2018-09-21T23:52:15.872Z,11.90
2018-09-21T23:56:19.288Z,11.90
